Share

Krabi, Thailand

Ao Nang, Krabi (IKRABIAO1) Elev 177 ft | 8.05 °N, 98.84 °E | Change Station

Current weather conditions updated 4 minutes ago

Mostly Cloudy
Mostly Cloudy
87.2 °F
Feels Like 105 °F
N
2.0
Wind Variable Wind from SW
Gusts 2.0 mph
Sunrise 6:13 AM
Sunset 6:33 PM
Moon Waning Gibbous

Tomorrow is forecast to be nearly the same temperature as today. Showers and thunderstorms.

Pressure 29.74 in
Visibility 6.2 miles
Clouds Few 2000 ft
Mostly Cloudy 30000 ft
Heat Index 105 °F
Dew Point 81 °F
Humidity 82%
Rainfall 0.01 in
Snow Depth Not available.
UV 0.0 out of 16
Pollen Not available.
Air Quality Not available.
Flu Activity Not available.
METAR VTSP 201030Z 25006KT 9999 FEW020 BKN300 31/24 Q1007 A2973

More Conditions Fewer Conditions

Pressure 29.74 in
Visibility 6.2 miles
Clouds Few 2000 ft
Mostly Cloudy 30000 ft
Heat Index 105 °F
Dew Point 81 °F
Humidity 82%
Rainfall 0.01 in
Snow Depth Not available.
UV 0.0 out of 16
Pollen Not available.
Air Quality Not available.
Flu Activity Not available.
METAR VTSP 201030Z 25006KT 9999 FEW020 BKN300 31/24 Q1007 A2973

More Conditions Fewer Conditions

10-Day Weather Forecast

Almanac

Astronomy

Apr. 20, 2014 Rise Set
Actual Time 6:13 AM ICT 6:33 PM ICT
Civil Twilight 5:51 AM ICT 6:54 PM ICT
Nautical Twilight 5:26 AM ICT 7:19 PM ICT
Astronomical Twilight 5:01 AM ICT 7:44 PM ICT
Moon 11:17 PM ICT 10:24 AM ICT
Length of Visible Light 13h 02m
Length of Day
12h 19m
Tomorrow will be 0m 25s longer.
Waning Gibbous, 71% of the Moon is Illuminated
Today
Waning Gibbous
Apr 22
Last Quarter
Apr 29
New
May 6
First Quarter
May 14
Full

Yesterday's Extremes

Country Highs Country Lows

Community

  • Easter Greetings
    Easter Greetings
  • Sunny day at the coast-Cape Arago Lighthouse
    Sunny day at the coast-Cape Arago Lighthouse
  • Cherry Blossoms
    Cherry Blossoms
  • White-Crowned Sparrow
    White-Crowned Sparrow
  • New Day
    New Day

WunderPhotos

Upload Photos

1,703,136 photos uploaded!

WunderBlogs® & News

Nearby

Snow Depth

Not available.

Coastal Water Temperatures

Place Temperature
No Stations Reporting

Earthquake Activity

City Distance Mag. Time & Date
No recent earthquake activity has been reported nearby.
Minimum magnitude displayed is 2.5.

Nearby Weather Stations

Station Location Temp. Heat Index Dew Point Humidity Wind Precip. Elev Updated Type
Ao Nang, Krabi, Ao Nang 87.2 °F 105 °F 81 °F 82% SW  at  2.0 mph 0.00 in / hr 177 ft 6:00 PM ICT Normal

Show More Stations Show Fewer Stations

What do you think?

We're not finished. Please let us know what you like, what you don't like, and what you are still missing.